»·PEaware :: N172SP KBUR-KONT

N172SP :: KBUR-KONT

FLIGHT INFORMATION

Flight Status: Arrived
Operator: Privately registered:
United States
More flights under this callsign
Pilot: Raymond C. (13739)
Aircraft: CESSNA 172 SKYHAWK
(C172)
More flights by this aircraft type
Origin: KBUR Bob Hope-Burbank
United States
Destination: KONT Ontario Intl
United States
More flights between these airports :: More routes between these airports
Route: ELMOO8 ELMOO V186 PDZ
File this flight plan on PilotEdge
Remarks:
Altitude:
(Current/Filed)
5,000ft
Speed:
(Current/Filed)
115kts
Departed: 30-Dec-16 01:32 PM
Arrived: 30-Dec-16 02:09 PM
Distance/Time
Traveled:
38nm/0:37
Distance/Time
To Go:
Arrived

Flight Plot

Page will automatically refresh every two minutes.


Map Options




Map Legend


Flown Route
Filed Route
Departure Airport
Arrival Airport
Navaid (VOR, NDB)
Fix

Horizontal Profiles

Position Reports

Time Latitude Longitude Heading Altitude Ground
Speed
30-Dec-16 13:02 34.210730 -118.357956 257 758ft 0kts
30-Dec-16 13:03 34.210730 -118.357956 257 758ft 0kts
30-Dec-16 13:04 34.210730 -118.357956 257 758ft 0kts
30-Dec-16 13:05 34.210730 -118.357956 257 758ft 0kts
30-Dec-16 13:06 34.210730 -118.357956 256 758ft 0kts
30-Dec-16 13:07 34.210730 -118.357956 256 758ft 0kts
30-Dec-16 13:08 34.196583 -118.349278 182 691ft 0kts
30-Dec-16 13:09 34.196583 -118.349278 182 691ft 0kts
30-Dec-16 13:10 34.196583 -118.349278 182 691ft 0kts
30-Dec-16 13:11 34.196583 -118.349278 182 691ft 0kts
30-Dec-16 13:12 34.196583 -118.349278 182 691ft 0kts
30-Dec-16 13:13 34.196583 -118.349278 182 691ft 0kts
30-Dec-16 13:14 34.196583 -118.349278 182 691ft 0kts
30-Dec-16 13:15 34.196583 -118.349278 182 691ft 0kts
30-Dec-16 13:16 34.196583 -118.349278 182 691ft 0kts
30-Dec-16 13:17 34.196583 -118.349278 182 691ft 0kts
30-Dec-16 13:18 34.196583 -118.349278 182 691ft 0kts
30-Dec-16 13:19 34.196583 -118.349278 182 691ft 0kts
30-Dec-16 13:20 34.196583 -118.349278 182 691ft 0kts
30-Dec-16 13:21 34.196583 -118.349278 182 691ft 0kts
30-Dec-16 13:22 34.196583 -118.349278 182 691ft 0kts
30-Dec-16 13:23 34.196583 -118.349278 182 691ft 0kts
30-Dec-16 13:24 34.196577 -118.349278 180 691ft 0kts
30-Dec-16 13:25 34.197129 -118.350308 275 693ft 7kts
30-Dec-16 13:26 34.197173 -118.353064 270 699ft 8kts
30-Dec-16 13:27 34.196784 -118.356860 274 707ft 12kts
30-Dec-16 13:28 34.196845 -118.361141 272 715ft 15kts
30-Dec-16 13:29 34.196877 -118.365237 270 720ft 13kts
30-Dec-16 13:30 34.196951 -118.368944 278 723ft 8kts
30-Dec-16 13:31 34.197097 -118.369103 350 724ft 5kts
30-Dec-16 13:32 34.196576 -118.355424 117 1163ft 74kts
30-Dec-16 13:33 34.180008 -118.337926 131 2164ft 83kts
30-Dec-16 13:34 34.173550 -118.313650 104 3198ft 78kts
30-Dec-16 13:35 34.165801 -118.289891 104 4151ft 77kts
30-Dec-16 13:36 34.158453 -118.264569 118 4952ft 86kts
30-Dec-16 13:37 34.146671 -118.234637 112 4994ft 102kts
30-Dec-16 13:38 34.135262 -118.203335 112 5039ft 101kts
30-Dec-16 13:39 34.121276 -118.171093 118 5101ft 111kts
30-Dec-16 13:40 34.113268 -118.135920 100 5113ft 111kts
30-Dec-16 13:41 34.104737 -118.104615 108 5142ft 113kts
30-Dec-16 13:42 34.094319 -118.067555 104 5092ft 115kts
30-Dec-16 13:43 34.083915 -118.031226 111 5137ft 115kts
30-Dec-16 13:44 34.071812 -117.995237 112 5140ft 116kts
30-Dec-16 13:45 34.060001 -117.957966 107 5052ft 119kts
30-Dec-16 13:46 34.049489 -117.920463 113 5049ft 117kts
30-Dec-16 13:47 34.037836 -117.883393 106 4924ft 127kts
30-Dec-16 13:48 34.026996 -117.847572 108 5134ft 114kts
30-Dec-16 13:49 34.015505 -117.810806 111 5071ft 120kts
30-Dec-16 13:50 34.002982 -117.775072 113 5096ft 120kts
30-Dec-16 13:51 33.991121 -117.737482 98 5078ft 114kts
30-Dec-16 13:52 33.991105 -117.699697 90 5071ft 108kts
30-Dec-16 13:53 33.992884 -117.663359 92 5104ft 105kts
30-Dec-16 13:54 33.994211 -117.627040 90 5120ft 107kts
30-Dec-16 13:55 33.994517 -117.590248 96 5070ft 110kts
30-Dec-16 13:56 33.995467 -117.553408 92 5054ft 113kts
30-Dec-16 13:57 33.996245 -117.515498 94 5023ft 111kts
30-Dec-16 13:58 33.997623 -117.478482 88 5121ft 109kts
30-Dec-16 13:59 34.000234 -117.439935 91 5010ft 116kts
30-Dec-16 14:00 34.001359 -117.401998 81 5049ft 120kts
30-Dec-16 14:01 34.028081 -117.384611 0 4119ft 118kts
30-Dec-16 14:02 34.053363 -117.396378 267 3497ft 96kts
30-Dec-16 14:03 34.055768 -117.426770 266 3495ft 84kts
30-Dec-16 14:03 34.055046 -117.451368 264 3137ft 92kts
30-Dec-16 14:05 34.054857 -117.487961 265 2514ft 94kts
30-Dec-16 14:06 34.054952 -117.518140 264 2044ft 90kts
30-Dec-16 14:07 34.054957 -117.548742 266 1519ft 92kts
30-Dec-16 14:08 34.054960 -117.574854 270 1108ft 62kts
30-Dec-16 14:09 34.054972 -117.588326 266 919ft 18kts
30-Dec-16 14:09 34.053830 -117.591631 269 915ft 12kts
30-Dec-16 14:10 34.053839 -117.598924 268 915ft 28kts
30-Dec-16 14:11 34.053835 -117.608125 269 921ft 20kts
30-Dec-16 14:13 34.053106 -117.610018 169 919ft 0kts
30-Dec-16 14:13 34.053106 -117.610018 169 919ft 0kts
30-Dec-16 14:15 34.053106 -117.610018 169 919ft 0kts
30-Dec-16 14:15 34.053106 -117.610018 169 919ft 0kts
30-Dec-16 14:17 34.053106 -117.610018 169 919ft 0kts
30-Dec-16 14:17 34.053106 -117.610018 169 919ft 0kts
30-Dec-16 14:18 34.053106 -117.610018 169 919ft 0kts
30-Dec-16 14:19 34.053106 -117.610018 169 919ft 0kts
30-Dec-16 14:20 34.053106 -117.610018 169 919ft 0kts
30-Dec-16 14:21 34.053106 -117.610018 169 919ft 0kts
30-Dec-16 14:22 34.053106 -117.610018 169 919ft 0kts
30-Dec-16 14:23 34.053106 -117.610018 169 919ft 0kts

Navigation Log

Ident Type
1. KBUR Airport
2. ELMOO Fix
3. ITSME Fix
4. PIRRO Fix
5. ADAMM Fix
6. BAYJY Fix
7. TIFNI Fix
8. PDZ Navaid
9. KONT Airport